Time;durP1;ratioP1;P1;durP2;ratioP2;P2;SDS_P1;SDS_P2;PMS_P1;PMS_P2;Temp;Humidity;BMP_temperature;BMP_pressure;BME280_temperature;BME280_humidity;BME280_pressure;Samples;Min_cycle;Max_cycle;Signal;HPM_P1;HPM_P2
2023/09/03 00:01:56;;;;;;;5.15;2.60;;;20.00;99.90;;;;;;7389555;19;20147;-79
2023/09/03 00:04:22;;;;;;;6.22;3.00;;;19.90;99.90;;;;;;7388383;19;20157;-79
2023/09/03 00:06:47;;;;;;;3.78;2.65;;;20.00;99.90;;;;;;7393054;19;20150;-79
2023/09/03 00:09:13;;;;;;;5.65;2.70;;;20.20;99.90;;;;;;7393182;19;20126;-78
2023/09/03 00:11:39;;;;;;;3.03;2.63;;;20.30;99.90;;;;;;7387234;19;20158;-77
2023/09/03 00:14:05;;;;;;;3.42;2.70;;;20.40;99.90;;;;;;7390743;19;20138;-78
2023/09/03 00:16:30;;;;;;;5.32;3.20;;;20.20;99.90;;;;;;7390412;19;20131;-79
2023/09/03 00:18:56;;;;;;;4.47;2.28;;;19.90;99.90;;;;;;7390996;19;20151;-78
2023/09/03 00:21:22;;;;;;;3.78;2.60;;;19.90;99.90;;;;;;7390932;19;20163;-79
2023/09/03 00:23:49;;;;;;;2.15;1.90;;;20.00;99.90;;;;;;7391773;19;20134;-78
2023/09/03 00:26:17;;;;;;;2.97;2.25;;;20.10;99.90;;;;;;7390386;19;20141;-78
2023/09/03 00:28:43;;;;;;;4.97;2.58;;;20.30;99.90;;;;;;7391470;19;20213;-78
2023/09/03 00:31:09;;;;;;;2.97;2.47;;;20.30;99.90;;;;;;7389611;19;20134;-78
2023/09/03 00:33:36;;;;;;;3.88;2.60;;;20.20;99.90;;;;;;7390068;19;20481;-78
2023/09/03 00:36:04;;;;;;;2.88;2.00;;;20.20;99.90;;;;;;7390084;19;20150;-79
2023/09/03 00:38:31;;;;;;;2.92;2.28;;;20.00;99.90;;;;;;7390860;19;20194;-78
2023/09/03 00:40:57;;;;;;;5.95;2.83;;;20.00;99.90;;;;;;7387052;19;20580;-79
2023/09/03 00:43:23;;;;;;;3.25;2.50;;;20.20;99.90;;;;;;7389579;19;20595;-78
2023/09/03 00:45:49;;;;;;;3.25;2.30;;;20.30;99.90;;;;;;7391068;19;20150;-79
2023/09/03 00:48:20;;;;;;;4.10;2.60;;;20.30;99.90;;;;;;7389298;19;20143;-79
2023/09/03 00:50:47;;;;;;;2.42;2.00;;;20.30;99.90;;;;;;7388237;19;20593;-79
2023/09/03 00:53:15;;;;;;;5.57;2.50;;;20.20;99.90;;;;;;7391574;19;20135;-78
2023/09/03 00:55:41;;;;;;;6.28;2.78;;;19.80;99.90;;;;;;7390843;19;20881;-78
2023/09/03 00:58:08;;;;;;;5.93;2.95;;;19.70;99.90;;;;;;7390344;19;20137;-79
2023/09/03 01:00:35;;;;;;;5.35;2.80;;;19.80;99.90;;;;;;7389635;19;20484;-78
2023/09/03 01:03:02;;;;;;;4.18;2.92;;;19.90;99.90;;;;;;7389253;19;20139;-78
2023/09/03 01:05:28;;;;;;;6.97;3.47;;;19.90;99.90;;;;;;7388338;19;20153;-79
2023/09/03 01:07:57;;;;;;;4.40;3.03;;;19.90;99.90;;;;;;7389407;19;20198;-79
2023/09/03 01:10:46;;;;;;;4.20;3.30;;;20.00;99.90;;;;;;7387662;19;20209;-78
2023/09/03 01:13:25;;;;;;;7.50;3.13;;;19.60;99.90;;;;;;7387315;19;20158;-78
2023/09/03 01:15:52;;;;;;;5.35;3.00;;;19.40;99.90;;;;;;7389623;19;20138;-79
2023/09/03 01:18:19;;;;;;;4.28;3.17;;;19.20;99.90;;;;;;7389116;19;20177;-79
2023/09/03 01:21:06;;;;;;;5.07;2.83;;;19.40;99.90;;;;;;7391141;19;20161;-79
2023/09/03 01:23:50;;;;;;;4.88;2.75;;;19.60;99.90;;;;;;7388682;19;20150;-77
2023/09/03 01:27:01;;;;;;;3.38;2.50;;;19.70;99.90;;;;;;7389080;19;20138;-79
2023/09/03 01:29:28;;;;;;;3.95;2.85;;;19.40;99.90;;;;;;7382354;19;20150;-78
2023/09/03 01:31:55;;;;;;;4.18;3.17;;;19.20;99.90;;;;;;7391472;19;20882;-78
2023/09/03 01:34:21;;;;;;;4.18;2.80;;;19.20;99.90;;;;;;7387662;19;20147;-78
2023/09/03 01:36:48;;;;;;;4.18;3.33;;;19.50;99.90;;;;;;7388521;19;20136;-78
2023/09/03 01:39:16;;;;;;;7.45;3.28;;;19.40;99.90;;;;;;7388780;19;20578;-78
2023/09/03 01:41:42;;;;;;;5.72;2.95;;;19.40;99.90;;;;;;7388261;19;20147;-78
2023/09/03 01:44:11;;;;;;;3.92;2.70;;;19.60;99.90;;;;;;7385391;19;20158;-78
2023/09/03 01:46:50;;;;;;;5.43;3.70;;;19.70;99.90;;;;;;7390358;19;20138;-78
2023/09/03 01:49:39;;;;;;;4.60;2.92;;;19.60;99.90;;;;;;7388807;19;20134;-79
2023/09/03 01:52:20;;;;;;;7.93;3.47;;;19.60;99.90;;;;;;7384193;19;20526;-80
2023/09/03 01:54:48;;;;;;;4.75;2.97;;;19.70;99.90;;;;;;7393626;19;20158;-79
2023/09/03 01:57:23;;;;;;;6.60;3.30;;;19.80;99.90;;;;;;7396204;19;20146;-79
2023/09/03 01:59:56;;;;;;;4.25;2.92;;;19.60;99.90;;;;;;7391944;19;20217;-79
2023/09/03 02:02:24;;;;;;;5.85;3.08;;;19.60;99.90;;;;;;7393506;19;20138;-78
2023/09/03 02:04:50;;;;;;;4.90;3.20;;;19.70;99.90;;;;;;7392750;19;20634;-80
2023/09/03 02:07:16;;;;;;;6.75;3.53;;;19.70;99.90;;;;;;7392877;19;20150;-79
2023/09/03 02:09:42;;;;;;;4.38;3.30;;;19.60;99.90;;;;;;7393056;19;20139;-79
2023/09/03 02:12:09;;;;;;;6.70;3.38;;;19.40;99.90;;;;;;7394832;19;20144;-80
2023/09/03 02:14:35;;;;;;;7.95;3.15;;;19.50;99.90;;;;;;7394765;19;20142;-80
2023/09/03 02:17:01;;;;;;;3.97;3.05;;;19.50;99.90;;;;;;7395691;19;20614;-80
2023/09/03 02:19:27;;;;;;;5.03;3.10;;;19.40;99.90;;;;;;7393128;19;20179;-79
2023/09/03 02:21:52;;;;;;;3.97;3.05;;;19.00;99.90;;;;;;7395302;19;20146;-79
2023/09/03 02:24:18;;;;;;;4.45;2.95;;;19.00;99.90;;;;;;7394161;19;20277;-79
2023/09/03 02:26:45;;;;;;;5.47;3.13;;;18.90;99.90;;;;;;7393749;19;20127;-79
2023/09/03 02:29:12;;;;;;;5.75;3.38;;;18.90;99.90;;;;;;7392558;19;20134;-79
2023/09/03 02:31:38;;;;;;;6.97;3.03;;;19.00;99.90;;;;;;7392934;19;20651;-79
2023/09/03 02:34:05;;;;;;;5.80;3.10;;;19.00;99.90;;;;;;7393084;19;20154;-79
2023/09/03 02:36:33;;;;;;;4.80;3.67;;;19.00;99.90;;;;;;7393478;19;20146;-79
2023/09/03 02:39:06;;;;;;;5.05;3.17;;;18.90;99.90;;;;;;7393228;19;20151;-79
2023/09/03 02:41:33;;;;;;;3.60;3.08;;;18.70;99.90;;;;;;7395371;19;20138;-78
2023/09/03 02:44:01;;;;;;;3.47;2.85;;;18.60;99.90;;;;;;7392731;19;20137;-78
2023/09/03 02:46:27;;;;;;;3.45;2.50;;;18.60;99.90;;;;;;7392067;19;20137;-79
2023/09/03 02:48:53;;;;;;;4.43;2.88;;;18.70;99.90;;;;;;7391943;19;20226;-79
2023/09/03 02:51:20;;;;;;;4.43;2.55;;;18.80;99.90;;;;;;7391897;19;20149;-80
2023/09/03 02:53:47;;;;;;;5.38;2.72;;;18.90;99.90;;;;;;7392589;19;20150;-79
2023/09/03 02:56:13;;;;;;;3.67;2.83;;;19.20;99.90;;;;;;7395473;19;20456;-79
2023/09/03 02:58:42;;;;;;;6.15;2.67;;;19.10;99.90;;;;;;7393060;19;20159;-79
2023/09/03 03:01:10;;;;;;;4.55;2.78;;;18.90;99.90;;;;;;7393849;19;20130;-80
2023/09/03 03:03:36;;;;;;;3.65;2.72;;;18.90;99.90;;;;;;7392308;19;20602;-79
2023/09/03 03:06:01;;;;;;;7.85;3.10;;;18.90;99.90;;;;;;7392364;19;20150;-79
2023/09/03 03:08:27;;;;;;;4.38;2.83;;;18.90;99.90;;;;;;7393331;19;20634;-80
2023/09/03 03:11:03;;;;;;;6.03;3.22;;;19.00;99.90;;;;;;7390762;19;20138;-80
2023/09/03 03:13:29;;;;;;;4.55;3.03;;;19.00;99.90;;;;;;7393339;19;20131;-80
2023/09/03 03:15:55;;;;;;;3.88;2.67;;;19.20;99.90;;;;;;7390901;19;20540;-79
2023/09/03 03:18:20;;;;;;;5.25;3.05;;;19.30;99.90;;;;;;7390885;19;20199;-79
2023/09/03 03:20:47;;;;;;;4.30;2.90;;;19.40;99.90;;;;;;7391417;19;20717;-79
2023/09/03 03:23:12;;;;;;;3.30;2.55;;;19.40;99.90;;;;;;7393371;19;20158;-79
2023/09/03 03:25:38;;;;;;;3.78;2.70;;;19.20;99.90;;;;;;7391740;19;20191;-79
2023/09/03 03:28:04;;;;;;;7.72;2.53;;;19.20;99.90;;;;;;7393350;19;20134;-79
2023/09/03 03:30:30;;;;;;;3.13;2.40;;;19.10;99.90;;;;;;7388742;19;21271;-79
2023/09/03 03:32:56;;;;;;;4.60;2.58;;;19.10;99.90;;;;;;7393068;19;20183;-79
2023/09/03 03:35:22;;;;;;;3.83;2.42;;;19.10;99.90;;;;;;7390925;19;20135;-79
2023/09/03 03:37:47;;;;;;;6.40;2.45;;;18.80;99.90;;;;;;7392981;19;20630;-78
2023/09/03 03:40:13;;;;;;;3.45;2.40;;;18.80;99.90;;;;;;7391601;19;20127;-81
2023/09/03 03:42:39;;;;;;;3.22;2.22;;;18.80;99.90;;;;;;7389782;19;20139;-82
2023/09/03 03:45:05;;;;;;;3.67;2.55;;;18.80;99.90;;;;;;7390566;19;20627;-79
2023/09/03 03:47:31;;;;;;;4.60;2.60;;;18.60;99.90;;;;;;7391770;19;20231;-79
2023/09/03 03:49:57;;;;;;;4.07;2.30;;;18.50;99.90;;;;;;7391980;19;20585;-78
2023/09/03 03:52:24;;;;;;;3.20;2.42;;;18.70;99.90;;;;;;7392208;19;20655;-80
2023/09/03 03:54:50;;;;;;;3.47;2.50;;;18.70;99.90;;;;;;7391783;19;20229;-78
2023/09/03 03:57:16;;;;;;;3.80;2.53;;;18.80;99.90;;;;;;7393794;19;20138;-78
2023/09/03 03:59:41;;;;;;;5.40;2.47;;;19.00;99.90;;;;;;7391003;19;20129;-78
2023/09/03 04:02:07;;;;;;;5.10;2.28;;;18.80;99.90;;;;;;7391670;19;20130;-78
2023/09/03 04:04:33;;;;;;;2.67;2.05;;;18.60;99.90;;;;;;7387693;19;20582;-79
2023/09/03 04:06:58;;;;;;;4.55;2.95;;;18.60;99.90;;;;;;7391746;19;20127;-78
2023/09/03 04:09:24;;;;;;;4.40;2.60;;;18.80;99.90;;;;;;7390241;19;20587;-78
2023/09/03 04:11:50;;;;;;;4.00;2.72;;;19.00;99.90;;;;;;7389776;19;20157;-79
2023/09/03 04:14:16;;;;;;;4.65;2.65;;;19.00;99.90;;;;;;7390656;19;21702;-79
2023/09/03 04:16:41;;;;;;;3.33;2.55;;;18.60;99.90;;;;;;7390862;19;20135;-79
2023/09/03 04:19:07;;;;;;;5.05;2.60;;;18.70;99.90;;;;;;7390164;19;20173;-78
2023/09/03 04:21:33;;;;;;;4.35;2.50;;;18.70;99.90;;;;;;7391894;19;20146;-78
2023/09/03 04:23:59;;;;;;;4.80;2.80;;;18.80;99.90;;;;;;7390556;19;20155;-78
2023/09/03 04:26:24;;;;;;;4.85;2.83;;;18.90;99.90;;;;;;7389194;19;20146;-78
2023/09/03 04:28:50;;;;;;;3.45;2.58;;;18.80;99.90;;;;;;7389763;19;20793;-78
2023/09/03 04:31:16;;;;;;;6.38;2.67;;;18.50;99.90;;;;;;7388802;19;20983;-78
2023/09/03 04:33:42;;;;;;;3.38;2.58;;;18.70;99.90;;;;;;7390135;19;20176;-78
2023/09/03 04:36:09;;;;;;;4.82;2.65;;;18.70;99.90;;;;;;7390667;19;20197;-78
2023/09/03 04:38:35;;;;;;;3.95;2.80;;;18.70;99.90;;;;;;7390184;19;20603;-79
2023/09/03 04:41:04;;;;;;;4.28;2.38;;;18.80;99.90;;;;;;7389757;19;20159;-79
2023/09/03 04:43:32;;;;;;;5.28;2.85;;;18.80;99.90;;;;;;7390026;19;20146;-78
2023/09/03 04:45:58;;;;;;;3.40;2.65;;;18.90;99.90;;;;;;7389828;19;20248;-79
2023/09/03 04:48:23;;;;;;;7.32;3.38;;;18.70;99.90;;;;;;7390188;19;20143;-78
2023/09/03 04:50:49;;;;;;;2.97;2.55;;;18.60;99.90;;;;;;7387731;19;20143;-78
2023/09/03 04:53:15;;;;;;;3.88;2.63;;;18.70;99.90;;;;;;7389228;19;20154;-78
2023/09/03 04:55:41;;;;;;;4.55;2.60;;;18.90;99.90;;;;;;7391143;19;20126;-78
2023/09/03 04:58:07;;;;;;;3.53;2.53;;;18.80;99.90;;;;;;7389264;19;20156;-78
2023/09/03 05:00:34;;;;;;;3.28;2.55;;;18.80;99.90;;;;;;7390024;19;20173;-79
2023/09/03 05:03:01;;;;;;;7.20;3.33;;;18.90;99.90;;;;;;7390320;19;20150;-79
2023/09/03 05:05:28;;;;;;;5.85;3.22;;;19.00;99.90;;;;;;7387507;19;20185;-80
2023/09/03 05:07:53;;;;;;;4.32;2.53;;;19.10;99.90;;;;;;7389112;19;20159;-77
2023/09/03 05:10:19;;;;;;;7.20;3.58;;;19.20;99.90;;;;;;7389006;19;20150;-78
2023/09/03 05:12:48;;;;;;;4.10;3.00;;;19.00;99.90;;;;;;7389359;19;20149;-78
2023/09/03 05:15:14;;;;;;;4.35;2.80;;;18.80;99.90;;;;;;7390087;19;20594;-78
2023/09/03 05:17:40;;;;;;;4.18;2.90;;;18.80;99.90;;;;;;7388346;19;20198;-78
2023/09/03 05:20:10;;;;;;;4.43;2.95;;;18.70;99.90;;;;;;7388336;19;20163;-79
2023/09/03 05:22:37;;;;;;;3.45;2.47;;;18.80;99.90;;;;;;7387305;19;20154;-78
2023/09/03 05:25:04;;;;;;;4.22;2.92;;;18.90;99.90;;;;;;7388258;19;20155;-79
2023/09/03 05:27:30;;;;;;;6.07;2.83;;;18.90;99.90;;;;;;7389556;19;20130;-78
2023/09/03 05:29:56;;;;;;;4.32;3.17;;;18.90;99.90;;;;;;7394743;19;20142;-78
2023/09/03 05:32:22;;;;;;;4.57;3.22;;;19.10;99.90;;;;;;7394777;19;20126;-78
2023/09/03 05:34:50;;;;;;;6.47;3.10;;;19.30;99.90;;;;;;7395163;19;20152;-78
2023/09/03 05:37:15;;;;;;;4.85;2.95;;;19.20;99.90;;;;;;7395389;19;20262;-78
2023/09/03 05:39:41;;;;;;;5.35;3.33;;;19.30;99.90;;;;;;7396063;19;20135;-79
2023/09/03 05:42:07;;;;;;;4.68;3.30;;;19.20;99.90;;;;;;7393349;19;20142;-78
2023/09/03 05:44:33;;;;;;;3.85;2.97;;;19.20;99.90;;;;;;7394591;19;20146;-78
2023/09/03 05:46:58;;;;;;;4.45;3.20;;;19.10;99.90;;;;;;7393107;19;20574;-79
2023/09/03 05:49:25;;;;;;;4.28;3.10;;;19.00;99.90;;;;;;7393387;19;20278;-78
2023/09/03 05:51:50;;;;;;;3.75;2.75;;;19.10;99.90;;;;;;7393088;19;20139;-78
2023/09/03 05:54:16;;;;;;;4.10;3.17;;;19.30;99.90;;;;;;7393942;19;20507;-78
2023/09/03 05:56:42;;;;;;;3.90;2.90;;;19.40;99.90;;;;;;7394625;19;20131;-77
2023/09/03 05:59:11;;;;;;;5.47;3.15;;;19.40;99.90;;;;;;7398319;19;20138;-79
2023/09/03 06:01:37;;;;;;;7.20;3.47;;;19.50;99.90;;;;;;7393726;19;20131;-78
2023/09/03 06:04:06;;;;;;;5.57;3.47;;;19.50;99.90;;;;;;7393830;19;20159;-78
2023/09/03 06:06:38;;;;;;;5.18;2.90;;;19.50;99.90;;;;;;7392252;19;20130;-79
2023/09/03 06:09:05;;;;;;;6.18;3.50;;;19.60;99.90;;;;;;7394381;19;20272;-77
2023/09/03 06:11:35;;;;;;;5.00;3.72;;;19.60;99.90;;;;;;7392827;19;20127;-79
2023/09/03 06:14:01;;;;;;;4.93;3.20;;;19.70;99.90;;;;;;7393443;19;20147;-78
2023/09/03 06:16:27;;;;;;;4.18;3.03;;;19.70;99.90;;;;;;7393215;19;20138;-78
2023/09/03 06:18:53;;;;;;;3.75;3.00;;;19.60;99.90;;;;;;7392995;19;20135;-77
2023/09/03 06:21:19;;;;;;;4.72;3.25;;;19.60;99.90;;;;;;7394471;19;20482;-77
2023/09/03 06:23:45;;;;;;;6.32;3.70;;;19.70;99.90;;;;;;7396217;19;20143;-79
2023/09/03 06:26:11;;;;;;;7.45;3.80;;;19.80;99.90;;;;;;7394897;19;20151;-77
2023/09/03 06:28:37;;;;;;;5.03;3.90;;;19.80;99.90;;;;;;7393222;19;20146;-77
2023/09/03 06:31:04;;;;;;;4.20;3.45;;;19.80;99.90;;;;;;7393030;19;20131;-78
2023/09/03 06:33:30;;;;;;;6.72;3.58;;;19.80;99.90;;;;;;7393065;19;20182;-78
2023/09/03 06:35:56;;;;;;;4.90;3.30;;;19.80;99.90;;;;;;7394732;19;20135;-77
2023/09/03 06:38:22;;;;;;;3.83;3.38;;;19.90;99.90;;;;;;7393153;19;20143;-79
2023/09/03 06:40:48;;;;;;;7.60;3.40;;;19.90;99.90;;;;;;7392386;19;20135;-77
2023/09/03 06:43:14;;;;;;;4.82;3.22;;;19.90;99.90;;;;;;7394656;19;20142;-78
2023/09/03 06:45:40;;;;;;;3.53;3.00;;;20.00;99.90;;;;;;7389342;19;20158;-78
2023/09/03 06:48:06;;;;;;;3.90;3.17;;;20.10;99.90;;;;;;7388442;19;20226;-78
2023/09/03 06:50:32;;;;;;;5.63;3.60;;;20.00;99.90;;;;;;7381614;19;20131;-78
2023/09/03 06:52:58;;;;;;;4.70;3.15;;;20.00;99.90;;;;;;7393747;19;20871;-79
2023/09/03 06:55:24;;;;;;;5.15;3.35;;;19.90;99.90;;;;;;7393044;19;20177;-78
2023/09/03 06:57:49;;;;;;;4.47;3.13;;;20.00;99.90;;;;;;7390487;19;20191;-78
2023/09/03 07:00:16;;;;;;;5.65;3.28;;;20.00;99.90;;;;;;7390215;19;20135;-80
2023/09/03 07:02:41;;;;;;;5.97;3.20;;;20.00;99.90;;;;;;7389752;19;20158;-79
2023/09/03 07:05:07;;;;;;;5.93;3.30;;;20.00;99.90;;;;;;7390872;19;20661;-79
2023/09/03 07:07:35;;;;;;;4.65;3.60;;;20.00;99.90;;;;;;7392725;19;20165;-77
2023/09/03 07:10:01;;;;;;;3.75;3.10;;;20.00;99.90;;;;;;7387333;19;20154;-80
2023/09/03 07:12:27;;;;;;;7.60;2.97;;;20.10;99.90;;;;;;7386982;19;20161;-80
2023/09/03 07:14:52;;;;;;;4.15;2.85;;;20.10;99.90;;;;;;7385897;19;20148;-78
2023/09/03 07:17:18;;;;;;;5.07;3.17;;;20.20;99.90;;;;;;7386598;19;20150;-83
2023/09/03 07:19:45;;;;;;;3.33;3.00;;;20.20;99.90;;;;;;7390194;19;20162;-76
2023/09/03 07:22:11;;;;;;;5.38;3.13;;;20.30;99.90;;;;;;7385970;19;20146;-78
2023/09/03 07:24:37;;;;;;;3.45;3.08;;;20.30;99.90;;;;;;7390039;19;20150;-80
2023/09/03 07:27:03;;;;;;;5.72;3.22;;;20.40;99.90;;;;;;7392891;19;20575;-78
2023/09/03 07:29:28;;;;;;;3.67;2.97;;;20.40;99.90;;;;;;7390675;19;20705;-77
2023/09/03 07:31:54;;;;;;;5.25;2.80;;;20.30;99.90;;;;;;7389286;19;20143;-77
2023/09/03 07:34:20;;;;;;;7.07;4.22;;;20.40;99.90;;;;;;7391262;19;20161;-79
2023/09/03 07:36:46;;;;;;;7.57;3.20;;;20.30;99.90;;;;;;7391213;19;20171;-76
2023/09/03 07:39:11;;;;;;;5.55;3.22;;;20.40;99.90;;;;;;7386409;19;20174;-81
2023/09/03 07:41:38;;;;;;;4.53;3.17;;;20.50;99.90;;;;;;7390291;19;20476;-80
2023/09/03 07:44:04;;;;;;;5.22;3.22;;;20.60;99.90;;;;;;7391900;19;20218;-79
2023/09/03 07:46:31;;;;;;;8.43;3.30;;;20.70;99.90;;;;;;7394607;19;20149;-78
2023/09/03 07:48:57;;;;;;;4.40;3.20;;;20.80;99.90;;;;;;7395016;19;20127;-80
2023/09/03 07:51:24;;;;;;;5.30;3.55;;;20.90;99.90;;;;;;7383356;19;20130;-78
2023/09/03 07:53:50;;;;;;;6.22;3.33;;;20.90;99.90;;;;;;7391682;19;20131;-77
2023/09/03 07:56:16;;;;;;;5.35;3.10;;;21.00;99.90;;;;;;7389603;19;20150;-78
2023/09/03 07:58:43;;;;;;;5.60;3.28;;;21.20;99.90;;;;;;7389330;19;20138;-78
2023/09/03 08:01:14;;;;;;;5.20;3.38;;;21.30;99.90;;;;;;7389754;19;20202;-78
2023/09/03 08:03:41;;;;;;;5.35;3.22;;;21.40;99.90;;;;;;7388422;19;20150;-79
2023/09/03 08:06:08;;;;;;;5.60;4.28;;;21.50;99.90;;;;;;7389424;19;20138;-78
2023/09/03 08:08:34;;;;;;;5.78;3.92;;;21.60;99.90;;;;;;7389803;19;20165;-79
2023/09/03 08:11:01;;;;;;;5.75;3.10;;;21.80;99.90;;;;;;7388343;19;20209;-79
2023/09/03 08:13:28;;;;;;;4.05;3.05;;;22.00;99.90;;;;;;7389560;19;20226;-79
2023/09/03 08:15:54;;;;;;;6.90;3.90;;;22.00;99.90;;;;;;7389792;19;20146;-80
2023/09/03 08:18:21;;;;;;;3.80;3.42;;;22.10;99.90;;;;;;7390863;19;20231;-78
2023/09/03 08:20:48;;;;;;;4.88;4.20;;;22.20;99.90;;;;;;7390332;19;20131;-81
2023/09/03 08:23:15;;;;;;;5.40;4.30;;;22.10;99.90;;;;;;7390847;19;20157;-79
2023/09/03 08:25:41;;;;;;;4.68;3.67;;;22.10;99.90;;;;;;7390667;19;20166;-79
2023/09/03 08:28:08;;;;;;;5.18;3.38;;;22.10;99.90;;;;;;7392753;19;20143;-79
2023/09/03 08:30:35;;;;;;;6.50;3.75;;;22.20;99.90;;;;;;7387630;19;20214;-78
2023/09/03 08:33:02;;;;;;;4.97;3.58;;;22.00;99.90;;;;;;7398579;19;20122;-79
2023/09/03 08:35:32;;;;;;;3.95;3.53;;;22.00;99.90;;;;;;7387463;19;20154;-80
2023/09/03 08:37:57;;;;;;;7.93;3.83;;;22.10;99.90;;;;;;7389732;19;20184;-78
2023/09/03 08:40:24;;;;;;;4.15;3.58;;;22.10;99.90;;;;;;7389442;19;20169;-77
2023/09/03 08:42:52;;;;;;;7.43;4.50;;;22.30;99.90;;;;;;7388637;19;20158;-79
2023/09/03 08:45:18;;;;;;;6.22;4.05;;;22.60;99.90;;;;;;7387405;19;20150;-78
2023/09/03 08:47:45;;;;;;;6.40;3.35;;;22.60;99.90;;;;;;7388793;19;20141;-78
2023/09/03 08:50:12;;;;;;;3.65;3.03;;;22.60;99.90;;;;;;7387711;19;20154;-78
2023/09/03 08:52:38;;;;;;;5.07;3.30;;;22.70;99.90;;;;;;7390848;19;20142;-79
2023/09/03 08:55:05;;;;;;;2.97;2.60;;;22.70;99.90;;;;;;7387610;19;20146;-78
2023/09/03 08:57:34;;;;;;;2.83;2.42;;;22.80;99.90;;;;;;7389561;19;20171;-80
2023/09/03 09:00:07;;;;;;;3.97;2.40;;;22.80;99.90;;;;;;7388085;19;20147;-77
2023/09/03 09:02:34;;;;;;;3.95;2.63;;;22.90;99.90;;;;;;7388156;19;20210;-79
2023/09/03 09:05:05;;;;;;;4.13;2.70;;;22.90;99.90;;;;;;7387365;19;20178;-79
2023/09/03 09:07:33;;;;;;;4.15;2.70;;;22.90;99.90;;;;;;7390253;19;20151;-77
2023/09/03 09:10:04;;;;;;;4.25;2.72;;;23.00;99.90;;;;;;7386834;19;20150;-80
2023/09/03 09:13:04;;;;;;;4.30;3.30;;;22.90;99.90;;;;;;7386960;19;20134;-79
2023/09/03 09:15:30;;;;;;;3.90;2.70;;;22.80;99.90;;;;;;7387700;19;20158;-76
2023/09/03 09:17:57;;;;;;;3.65;2.88;;;22.80;99.90;;;;;;7389154;19;20174;-77
2023/09/03 09:20:23;;;;;;;3.47;2.55;;;22.70;99.90;;;;;;7388153;19;20134;-74
2023/09/03 09:22:49;;;;;;;3.80;2.70;;;22.70;99.90;;;;;;7388466;19;20146;-75
2023/09/03 09:25:21;;;;;;;4.88;3.30;;;22.80;99.90;;;;;;7389744;19;20710;-76
2023/09/03 09:27:48;;;;;;;3.80;2.92;;;22.80;99.90;;;;;;7386729;19;20146;-75
2023/09/03 09:30:16;;;;;;;3.25;2.75;;;22.90;99.90;;;;;;7384126;19;20150;-76
2023/09/03 09:32:43;;;;;;;3.42;2.97;;;23.10;99.90;;;;;;7387609;19;20135;-75
2023/09/03 09:35:09;;;;;;;3.45;3.15;;;23.20;99.90;;;;;;7385546;19;20209;-76
2023/09/03 09:37:41;;;;;;;3.00;2.67;;;23.20;99.90;;;;;;7384411;19;20473;-74
2023/09/03 09:40:08;;;;;;;4.15;2.63;;;23.20;99.90;;;;;;7385341;19;20142;-76
2023/09/03 09:42:55;;;;;;;4.25;3.05;;;23.30;99.90;;;;;;7386302;19;20155;-75
2023/09/03 09:45:20;;;;;;;5.65;2.80;;;23.40;99.90;;;;;;7384135;19;20130;-74
2023/09/03 09:47:47;;;;;;;4.25;2.15;;;23.50;99.90;;;;;;7384161;19;20144;-75
2023/09/03 09:50:12;;;;;;;2.00;1.67;;;23.60;99.90;;;;;;7384952;19;20138;-76
2023/09/03 09:52:40;;;;;;;3.10;1.90;;;23.50;99.90;;;;;;7386719;19;20215;-74
2023/09/03 09:55:06;;;;;;;3.08;1.90;;;23.40;99.90;;;;;;7386024;19;20143;-75
2023/09/03 09:57:33;;;;;;;3.10;2.17;;;23.60;99.90;;;;;;7387250;19;20241;-75
2023/09/03 10:00:04;;;;;;;2.08;1.88;;;23.70;99.90;;;;;;7386293;19;20150;-75
2023/09/03 10:02:30;;;;;;;2.42;1.83;;;23.90;99.90;;;;;;7384805;19;20151;-76
2023/09/03 10:04:56;;;;;;;2.25;1.73;;;23.90;99.90;;;;;;7382600;19;20164;-75
2023/09/03 10:07:22;;;;;;;1.85;1.50;;;23.90;99.90;;;;;;7387480;19;20154;-74
2023/09/03 10:09:48;;;;;;;3.97;2.13;;;24.00;99.90;;;;;;7384909;19;20140;-75
2023/09/03 10:12:14;;;;;;;2.50;2.30;;;24.10;99.90;;;;;;7386876;19;20525;-75
2023/09/03 10:14:40;;;;;;;2.28;1.50;;;24.00;99.90;;;;;;7388479;19;20142;-74
2023/09/03 10:17:08;;;;;;;1.90;1.30;;;24.00;99.90;;;;;;7394217;19;20472;-76
2023/09/03 10:19:54;;;;;;;3.78;1.90;;;24.00;99.90;;;;;;7390641;19;20512;-75
2023/09/03 10:22:23;;;;;;;2.33;1.92;;;23.90;99.90;;;;;;7395050;19;20139;-75
2023/09/03 10:24:54;;;;;;;2.00;1.40;;;23.90;99.90;;;;;;7392104;19;20153;-75
2023/09/03 10:27:27;;;;;;;2.75;1.85;;;24.00;99.90;;;;;;7393814;19;20589;-76
2023/09/03 10:29:56;;;;;;;3.22;2.70;;;24.20;99.90;;;;;;7392501;19;20290;-75
2023/09/03 10:32:23;;;;;;;1.92;1.38;;;24.30;99.90;;;;;;7393802;19;20134;-77
2023/09/03 10:34:49;;;;;;;1.85;1.30;;;24.40;99.90;;;;;;7392990;19;20190;-78
2023/09/03 10:37:15;;;;;;;1.33;1.08;;;24.50;99.90;;;;;;7393314;19;20146;-79
2023/09/03 10:39:45;;;;;;;2.72;1.10;;;24.50;99.90;;;;;;7392347;19;20154;-81
2023/09/03 10:42:14;;;;;;;2.75;1.20;;;24.50;99.90;;;;;;7390035;19;20225;-79
2023/09/03 10:44:50;;;;;;;1.70;0.80;;;24.60;99.90;;;;;;7389799;19;20218;-79
2023/09/03 10:47:19;;;;;;;1.58;0.90;;;24.50;99.90;;;;;;7392169;19;20661;-78
2023/09/03 10:49:51;;;;;;;1.25;0.88;;;24.60;99.90;;;;;;7391373;19;20135;-79
2023/09/03 10:52:26;;;;;;;1.10;1.00;;;24.70;99.90;;;;;;7391078;19;20221;-79
2023/09/03 10:55:15;;;;;;;1.85;0.90;;;24.70;99.90;;;;;;7390638;19;20598;-79
2023/09/03 10:57:42;;;;;;;1.13;1.00;;;24.70;99.90;;;;;;7391708;19;20233;-78
2023/09/03 11:00:10;;;;;;;3.25;1.10;;;24.70;99.90;;;;;;7390947;19;20139;-80
2023/09/03 11:02:42;;;;;;;1.23;0.90;;;24.60;99.90;;;;;;7392227;19;20341;-79
2023/09/03 11:05:14;;;;;;;1.40;1.13;;;24.60;99.90;;;;;;7389606;19;20181;-80
2023/09/03 11:07:44;;;;;;;1.38;1.00;;;24.70;99.90;;;;;;7392649;19;20135;-80
2023/09/03 11:10:25;;;;;;;1.02;0.93;;;24.70;99.90;;;;;;7389968;19;20138;-79
2023/09/03 11:12:52;;;;;;;2.55;0.93;;;24.80;99.90;;;;;;7390364;19;20253;-79
2023/09/03 11:15:18;;;;;;;1.27;0.80;;;24.80;99.90;;;;;;7393709;19;20591;-79
2023/09/03 11:17:51;;;;;;;2.22;1.10;;;24.90;99.90;;;;;;7391222;19;20480;-79
2023/09/03 11:20:36;;;;;;;0.80;0.80;;;24.90;99.90;;;;;;7392477;19;20154;-80
2023/09/03 11:23:03;;;;;;;0.77;0.73;;;25.00;99.90;;;;;;7390003;19;20488;-80
2023/09/03 11:25:37;;;;;;;3.58;1.20;;;25.00;99.90;;;;;;7390720;19;20645;-79
2023/09/03 11:28:04;;;;;;;0.90;0.80;;;25.00;99.90;;;;;;7393896;19;20159;-79
2023/09/03 11:30:30;;;;;;;1.98;1.05;;;25.00;99.90;;;;;;7388987;19;20583;-80
2023/09/03 11:32:59;;;;;;;1.25;1.13;;;25.10;99.90;;;;;;7391581;19;20157;-80
2023/09/03 11:35:25;;;;;;;1.35;0.85;;;25.30;99.90;;;;;;7389555;19;20145;-79
2023/09/03 11:37:52;;;;;;;1.23;0.90;;;25.40;99.90;;;;;;7392763;19;20150;-80
2023/09/03 11:40:26;;;;;;;2.63;1.20;;;25.30;99.90;;;;;;7389557;19;20154;-80
2023/09/03 11:42:52;;;;;;;1.88;0.85;;;25.20;99.90;;;;;;7392237;19;20591;-79
2023/09/03 11:45:18;;;;;;;1.65;0.85;;;25.20;99.90;;;;;;7388590;19;20142;-80
2023/09/03 11:47:50;;;;;;;1.27;1.00;;;25.10;99.90;;;;;;7389797;19;20630;-79
2023/09/03 11:50:17;;;;;;;1.40;1.10;;;25.00;99.90;;;;;;7389733;19;20266;-79
2023/09/03 11:52:58;;;;;;;0.85;0.82;;;25.00;99.90;;;;;;7391473;19;20150;-78
2023/09/03 11:55:30;;;;;;;1.35;0.90;;;25.20;99.90;;;;;;7388585;19;20158;-80
2023/09/03 11:57:58;;;;;;;1.70;1.10;;;25.20;99.90;;;;;;7390267;19;20139;-81
2023/09/03 12:00:24;;;;;;;2.10;1.27;;;25.20;99.90;;;;;;7389027;19;20151;-79
2023/09/03 12:02:51;;;;;;;1.27;1.00;;;25.20;99.90;;;;;;7388886;19;20226;-78
2023/09/03 12:05:20;;;;;;;1.70;1.13;;;25.20;99.90;;;;;;7387633;19;20158;-80
2023/09/03 12:07:46;;;;;;;2.70;1.90;;;25.20;99.90;;;;;;7390651;19;20511;-80
2023/09/03 12:10:18;;;;;;;1.75;1.38;;;25.20;99.90;;;;;;7390415;19;20602;-80
2023/09/03 12:12:44;;;;;;;1.27;0.90;;;25.30;99.90;;;;;;7388221;19;20198;-79
2023/09/03 12:15:20;;;;;;;1.13;1.02;;;25.30;99.90;;;;;;7390178;19;20146;-79
2023/09/03 12:17:46;;;;;;;1.15;1.00;;;25.30;99.90;;;;;;7389607;19;20149;-80
2023/09/03 12:20:36;;;;;;;1.20;1.10;;;25.30;99.90;;;;;;7391617;19;20238;-79
2023/09/03 12:23:09;;;;;;;2.13;1.20;;;25.40;99.90;;;;;;7392354;19;20130;-78
2023/09/03 12:25:41;;;;;;;2.50;1.30;;;25.50;99.90;;;;;;7388384;19;20155;-79
2023/09/03 12:28:08;;;;;;;1.05;0.95;;;25.50;99.90;;;;;;7390547;19;20141;-79
2023/09/03 12:30:57;;;;;;;2.60;1.38;;;25.50;99.90;;;;;;7387445;19;20137;-79
2023/09/03 12:33:50;;;;;;;1.33;1.00;;;25.50;99.90;;;;;;7390051;19;20134;-79
2023/09/03 12:36:21;;;;;;;1.30;1.15;;;25.40;99.90;;;;;;7388160;19;20154;-80
2023/09/03 12:38:59;;;;;;;1.70;1.30;;;25.40;99.90;;;;;;7387331;19;20335;-77
2023/09/03 12:41:31;;;;;;;2.53;1.40;;;25.50;99.90;;;;;;7390460;19;20493;-79
2023/09/03 12:44:07;;;;;;;3.05;1.90;;;25.50;99.90;;;;;;7389625;19;20619;-80
2023/09/03 12:46:37;;;;;;;2.55;1.40;;;25.60;99.90;;;;;;7387922;19;21144;-79
2023/09/03 12:49:07;;;;;;;2.40;1.10;;;25.60;99.90;;;;;;7387024;19;20233;-80
2023/09/03 12:51:33;;;;;;;1.23;0.85;;;25.60;99.90;;;;;;7387736;19;20155;-79
2023/09/03 12:53:59;;;;;;;1.20;1.08;;;25.50;99.90;;;;;;7387517;19;20980;-79